createdAt,value
2023-04-13T00:00:32.750Z,0.00
2023-04-13T00:01:32.742Z,0.00
2023-04-13T00:02:32.894Z,0.00
2023-04-13T00:03:32.915Z,0.00
2023-04-13T00:04:32.720Z,0.00
2023-04-13T00:05:32.737Z,0.00
2023-04-13T00:06:32.725Z,0.00
2023-04-13T00:07:32.716Z,0.00
2023-04-13T00:08:32.721Z,0.00
2023-04-13T00:09:32.721Z,0.00
2023-04-13T00:10:32.717Z,0.00
2023-04-13T00:11:32.714Z,0.00
2023-04-13T00:12:32.710Z,0.00
2023-04-13T00:13:32.709Z,0.00
2023-04-13T00:14:32.707Z,0.00
2023-04-13T00:15:32.707Z,0.00
2023-04-13T00:16:32.763Z,0.00
2023-04-13T00:17:32.789Z,0.00
2023-04-13T00:18:33.023Z,0.00
2023-04-13T00:19:32.996Z,0.00
2023-04-13T00:20:32.693Z,0.00
2023-04-13T00:21:32.695Z,0.00
2023-04-13T00:22:32.692Z,0.00
2023-04-13T00:23:32.689Z,0.00
2023-04-13T00:24:32.693Z,0.00
2023-04-13T00:25:32.688Z,0.00
2023-04-13T00:26:32.694Z,0.00
2023-04-13T00:27:32.683Z,0.00
2023-04-13T00:28:32.692Z,0.00
2023-04-13T00:29:32.681Z,0.00
2023-04-13T00:30:32.703Z,0.00
2023-04-13T00:31:32.732Z,0.00
2023-04-13T00:32:32.697Z,0.00
2023-04-13T00:33:32.670Z,0.00
2023-04-13T00:34:32.672Z,0.00
2023-04-13T00:35:32.672Z,0.00
2023-04-13T00:36:32.670Z,0.00
2023-04-13T00:37:32.674Z,0.00
2023-04-13T00:38:32.668Z,0.00
2023-04-13T00:39:32.660Z,0.00
2023-04-13T00:40:32.663Z,0.00
2023-04-13T00:41:32.656Z,0.00
2023-04-13T00:42:32.663Z,0.00
2023-04-13T00:43:32.656Z,0.00
2023-04-13T00:44:32.656Z,0.00
2023-04-13T00:45:32.648Z,0.00
2023-04-13T00:46:32.737Z,0.00
2023-04-13T00:47:32.667Z,0.00
2023-04-13T00:48:32.672Z,0.00
2023-04-13T00:49:32.646Z,0.00
2023-04-13T00:50:32.645Z,0.00
2023-04-13T00:51:32.648Z,0.00
2023-04-13T00:52:32.642Z,0.00
2023-04-13T00:53:32.645Z,0.00
2023-04-13T00:54:32.649Z,0.00
2023-04-13T00:55:32.635Z,0.00
2023-04-13T00:56:32.636Z,0.00
2023-04-13T00:57:32.635Z,0.00
2023-04-13T00:58:32.639Z,0.00
2023-04-13T00:59:32.629Z,0.00
2023-04-13T01:00:32.629Z,0.00
2023-04-13T01:01:32.683Z,0.00
2023-04-13T01:02:32.675Z,0.00
2023-04-13T01:03:32.703Z,0.00
2023-04-13T01:04:32.696Z,0.00
2023-04-13T01:05:32.630Z,0.00
2023-04-13T01:06:32.619Z,0.00
2023-04-13T01:07:32.618Z,0.00
2023-04-13T01:08:32.617Z,0.00
2023-04-13T01:09:32.609Z,0.00
2023-04-13T01:10:32.614Z,0.00
2023-04-13T01:11:32.610Z,0.00
2023-04-13T01:12:32.608Z,0.00
2023-04-13T01:13:32.607Z,0.00
2023-04-13T01:14:32.609Z,0.00
2023-04-13T01:15:32.650Z,0.00
2023-04-13T01:16:32.627Z,0.00
2023-04-13T01:17:32.620Z,0.00
2023-04-13T01:18:32.595Z,0.00
2023-04-13T01:19:32.594Z,0.00
2023-04-13T01:20:32.619Z,0.00
2023-04-13T01:21:32.586Z,0.00
2023-04-13T01:22:32.588Z,0.00
2023-04-13T01:23:32.580Z,0.00
2023-04-13T01:24:32.599Z,0.00
2023-04-13T01:25:32.577Z,0.00
2023-04-13T01:26:32.579Z,0.00
2023-04-13T01:27:32.579Z,0.00
2023-04-13T01:28:32.576Z,0.00
2023-04-13T01:29:32.578Z,0.00
2023-04-13T01:30:32.568Z,0.00
2023-04-13T01:31:32.623Z,0.00
2023-04-13T01:32:32.598Z,0.00
2023-04-13T01:33:32.568Z,0.00
2023-04-13T01:34:32.573Z,0.00
2023-04-13T01:35:32.581Z,0.00
2023-04-13T01:36:32.636Z,0.00
2023-04-13T01:37:32.554Z,0.00
2023-04-13T01:38:32.559Z,0.00
2023-04-13T01:39:32.553Z,0.00
2023-04-13T01:40:32.555Z,0.00
2023-04-13T01:41:32.554Z,0.00
2023-04-13T01:42:32.561Z,0.00
2023-04-13T01:43:32.549Z,0.00
2023-04-13T01:44:32.546Z,0.00
2023-04-13T01:45:32.604Z,0.00
2023-04-13T01:46:32.572Z,0.00
2023-04-13T01:47:32.559Z,0.00
2023-04-13T01:48:32.539Z,0.00
2023-04-13T01:49:32.534Z,0.00
2023-04-13T01:50:32.544Z,0.00
2023-04-13T01:51:32.533Z,0.00
2023-04-13T01:52:32.550Z,0.00
2023-04-13T01:53:32.533Z,0.00
2023-04-13T01:54:32.526Z,0.00
2023-04-13T01:55:32.523Z,0.00
2023-04-13T01:56:32.532Z,0.00
2023-04-13T01:57:32.520Z,0.00
2023-04-13T01:58:32.524Z,0.00
2023-04-13T01:59:32.514Z,0.00
2023-04-13T02:00:32.549Z,0.00
2023-04-13T02:01:32.513Z,0.00
2023-04-13T02:02:32.585Z,0.00
2023-04-13T02:03:32.686Z,0.00
2023-04-13T02:04:32.507Z,0.00
2023-04-13T02:05:32.509Z,0.00
2023-04-13T02:06:32.508Z,0.00
2023-04-13T02:07:32.517Z,0.00
2023-04-13T02:08:33.550Z,0.00
2023-04-13T02:09:32.497Z,0.00
2023-04-13T02:10:32.499Z,0.00
2023-04-13T02:11:32.501Z,0.00
2023-04-13T02:12:32.492Z,0.00
2023-04-13T02:13:32.499Z,0.00
2023-04-13T02:14:32.493Z,0.00
2023-04-13T02:15:32.482Z,0.00
2023-04-13T02:16:32.551Z,0.00
2023-04-13T02:17:32.530Z,0.00
2023-04-13T02:18:32.481Z,0.00
2023-04-13T02:19:32.481Z,0.00
2023-04-13T02:20:32.476Z,0.00
2023-04-13T02:21:32.481Z,0.00
2023-04-13T02:22:32.474Z,0.00
2023-04-13T02:23:32.480Z,0.00
2023-04-13T02:24:32.495Z,0.00
2023-04-13T02:25:32.472Z,0.00
2023-04-13T02:26:32.462Z,0.00
2023-04-13T02:27:32.460Z,0.00
2023-04-13T02:28:32.475Z,0.00
2023-04-13T02:29:32.456Z,0.00
2023-04-13T02:30:32.458Z,0.00
2023-04-13T02:31:32.489Z,0.00
2023-04-13T02:32:32.467Z,0.00
2023-04-13T02:33:32.555Z,0.00
2023-04-13T02:34:32.453Z,0.00
2023-04-13T02:35:33.937Z,0.00
2023-04-13T02:36:32.444Z,0.00
2023-04-13T02:37:32.490Z,0.00
2023-04-13T02:38:32.443Z,0.00
2023-04-13T02:39:32.433Z,0.00
2023-04-13T02:40:32.461Z,0.00
2023-04-13T02:41:32.427Z,0.00
2023-04-13T02:42:32.433Z,0.00
2023-04-13T02:43:32.435Z,0.00
2023-04-13T02:44:32.439Z,0.00
2023-04-13T02:45:32.442Z,0.00
2023-04-13T02:46:33.135Z,0.00
2023-04-13T02:47:32.429Z,0.00
2023-04-13T02:48:32.424Z,0.00
2023-04-13T02:49:32.412Z,0.00
2023-04-13T02:50:32.422Z,0.00
2023-04-13T02:51:32.409Z,0.00
2023-04-13T02:52:32.431Z,0.00
2023-04-13T02:53:32.405Z,0.00
2023-04-13T02:54:32.408Z,0.00
2023-04-13T02:55:32.397Z,0.00
2023-04-13T02:56:32.428Z,0.00
2023-04-13T02:57:32.394Z,0.00
2023-04-13T02:58:32.421Z,0.00
2023-04-13T02:59:32.398Z,0.00
2023-04-13T03:00:32.406Z,0.00
2023-04-13T03:01:32.443Z,0.00
2023-04-13T03:02:32.476Z,0.00
2023-04-13T03:03:32.381Z,0.00
2023-04-13T03:04:32.402Z,0.00
2023-04-13T03:05:32.375Z,0.00
2023-04-13T03:06:32.386Z,0.00
2023-04-13T03:07:32.375Z,0.00
2023-04-13T03:08:32.374Z,0.00
2023-04-13T03:09:32.371Z,0.00
2023-04-13T03:10:32.375Z,0.00
2023-04-13T03:11:32.365Z,0.00
2023-04-13T03:12:32.391Z,0.00
2023-04-13T03:13:32.686Z,0.00
2023-04-13T03:14:32.371Z,0.00
2023-04-13T03:15:32.374Z,0.00
2023-04-13T03:16:32.367Z,0.00
2023-04-13T03:17:32.361Z,0.00
2023-04-13T03:18:32.355Z,0.00
2023-04-13T03:19:32.363Z,0.00
2023-04-13T03:20:32.352Z,0.00
2023-04-13T03:21:32.346Z,0.00
2023-04-13T03:22:32.349Z,0.00
2023-04-13T03:23:32.345Z,0.00
2023-04-13T03:24:32.354Z,0.00
2023-04-13T03:25:33.913Z,0.00
2023-04-13T03:26:32.339Z,0.00
2023-04-13T03:27:32.343Z,0.00
2023-04-13T03:28:32.360Z,0.00
2023-04-13T03:29:32.333Z,0.00
2023-04-13T03:30:32.341Z,0.00
2023-04-13T03:31:32.423Z,0.00
2023-04-13T03:32:32.378Z,0.00
2023-04-13T03:33:32.322Z,0.00
2023-04-13T03:34:32.327Z,0.00
2023-04-13T03:35:32.332Z,0.00
2023-04-13T03:36:32.339Z,0.00
2023-04-13T03:37:32.347Z,0.00
2023-04-13T03:38:32.314Z,0.00
2023-04-13T03:39:32.315Z,0.00
2023-04-13T03:40:32.311Z,0.00
2023-04-13T03:41:32.309Z,0.00
2023-04-13T03:42:32.311Z,0.00
2023-04-13T03:43:32.308Z,0.00
2023-04-13T03:44:32.329Z,0.00
2023-04-13T03:45:32.298Z,0.00
2023-04-13T03:46:32.307Z,0.00
2023-04-13T03:47:32.327Z,0.00
2023-04-13T03:48:32.295Z,0.00
2023-04-13T03:49:32.297Z,0.00
2023-04-13T03:50:32.294Z,0.00
2023-04-13T03:51:32.284Z,0.00
2023-04-13T03:52:32.293Z,0.00
2023-04-13T03:53:32.285Z,0.00
2023-04-13T03:54:32.287Z,0.00
2023-04-13T03:55:32.278Z,0.00
2023-04-13T03:56:32.272Z,0.00
2023-04-13T03:57:32.282Z,0.00
2023-04-13T03:58:32.271Z,0.00
2023-04-13T03:59:32.279Z,0.00
2023-04-13T04:00:32.291Z,0.00
2023-04-13T04:01:32.265Z,0.00
2023-04-13T04:02:32.362Z,0.00
2023-04-13T04:03:32.408Z,0.00
2023-04-13T04:04:32.297Z,0.00
2023-04-13T04:05:32.257Z,0.00
2023-04-13T04:06:32.251Z,0.00
2023-04-13T04:07:32.257Z,0.00
2023-04-13T04:08:32.245Z,0.00
2023-04-13T04:09:32.251Z,0.00
2023-04-13T04:10:32.244Z,0.00
2023-04-13T04:11:32.247Z,0.00
2023-04-13T04:12:32.247Z,0.00
2023-04-13T04:13:32.240Z,0.00
2023-04-13T04:14:32.230Z,0.00
2023-04-13T04:15:32.237Z,0.00
2023-04-13T04:16:32.266Z,0.00
2023-04-13T04:17:32.257Z,0.00
2023-04-13T04:18:32.221Z,0.00
2023-04-13T04:19:32.228Z,0.00
2023-04-13T04:20:32.224Z,0.00
2023-04-13T04:21:32.218Z,0.00
2023-04-13T04:22:32.219Z,5.63
2023-04-13T04:23:32.219Z,5.63
2023-04-13T04:24:32.213Z,5.63
2023-04-13T04:25:32.217Z,5.63
2023-04-13T04:26:32.213Z,11.25
2023-04-13T04:27:32.206Z,11.25
2023-04-13T04:28:32.203Z,11.25
2023-04-13T04:29:32.207Z,11.25
2023-04-13T04:30:32.199Z,11.25
2023-04-13T04:31:32.603Z,11.25
2023-04-13T04:32:32.290Z,11.25
2023-04-13T04:33:32.193Z,11.25
2023-04-13T04:34:32.204Z,11.25
2023-04-13T04:35:32.191Z,11.25
2023-04-13T04:36:32.191Z,11.25
2023-04-13T04:37:32.190Z,11.25
2023-04-13T04:38:32.181Z,11.25
2023-04-13T04:39:32.199Z,16.88
2023-04-13T04:40:32.200Z,16.88
2023-04-13T04:41:32.201Z,16.88
2023-04-13T04:42:32.179Z,16.88
2023-04-13T04:43:32.205Z,16.88
2023-04-13T04:44:32.169Z,22.50
2023-04-13T04:45:32.202Z,28.13
2023-04-13T04:46:32.166Z,28.13
2023-04-13T04:47:32.202Z,33.75
2023-04-13T04:48:32.243Z,33.75
2023-04-13T04:49:32.165Z,33.75
2023-04-13T04:50:32.155Z,33.75
2023-04-13T04:51:32.250Z,28.13
2023-04-13T04:52:32.159Z,28.13
2023-04-13T04:53:32.158Z,28.13
2023-04-13T04:54:32.148Z,22.50
2023-04-13T04:55:32.152Z,22.50
2023-04-13T04:56:32.169Z,22.50
2023-04-13T04:57:32.174Z,22.50
2023-04-13T04:58:32.188Z,22.50
2023-04-13T04:59:32.141Z,28.13
2023-04-13T05:00:32.178Z,28.13
2023-04-13T05:01:32.273Z,28.13
2023-04-13T05:02:32.305Z,33.75
2023-04-13T05:03:32.232Z,33.75
2023-04-13T05:04:32.206Z,33.75
2023-04-13T05:05:32.259Z,33.75
2023-04-13T05:06:32.143Z,33.75
2023-04-13T05:07:32.206Z,33.75
2023-04-13T05:08:32.217Z,33.75
2023-04-13T05:09:32.125Z,39.38
2023-04-13T05:10:32.134Z,39.38
2023-04-13T05:11:32.117Z,39.38
2023-04-13T05:12:32.115Z,39.38
2023-04-13T05:13:32.114Z,39.38
2023-04-13T05:14:32.130Z,45.00
2023-04-13T05:15:32.128Z,45.00
2023-04-13T05:16:32.262Z,45.00
2023-04-13T05:17:32.135Z,50.63
2023-04-13T05:18:32.110Z,50.63
2023-04-13T05:19:32.107Z,50.63
2023-04-13T05:20:32.122Z,50.63
2023-04-13T05:21:32.106Z,50.63
2023-04-13T05:22:32.093Z,56.25
2023-04-13T05:23:32.093Z,61.88
2023-04-13T05:24:32.088Z,67.50
2023-04-13T05:25:32.087Z,78.75
2023-04-13T05:26:32.081Z,90.00
2023-04-13T05:27:32.087Z,95.63
2023-04-13T05:28:32.082Z,101.25
2023-04-13T05:29:32.077Z,106.88
2023-04-13T05:30:32.078Z,112.50
2023-04-13T05:31:32.112Z,112.50
2023-04-13T05:32:32.087Z,106.88
2023-04-13T05:33:32.071Z,101.25
2023-04-13T05:34:32.063Z,101.25
2023-04-13T05:35:32.084Z,101.25
2023-04-13T05:36:32.101Z,101.25
2023-04-13T05:37:32.060Z,106.88
2023-04-13T05:38:32.055Z,106.88
2023-04-13T05:39:32.065Z,112.50
2023-04-13T05:40:32.065Z,118.13
2023-04-13T05:41:32.058Z,118.13
2023-04-13T05:42:32.059Z,123.75
2023-04-13T05:43:32.053Z,129.38
2023-04-13T05:44:32.048Z,140.63
2023-04-13T05:45:32.064Z,151.88
2023-04-13T05:46:32.033Z,157.50
2023-04-13T05:47:32.102Z,163.13
2023-04-13T05:48:34.249Z,163.13
2023-04-13T05:49:32.032Z,157.50
2023-04-13T05:50:32.057Z,151.88
2023-04-13T05:51:32.037Z,151.88
2023-04-13T05:52:32.041Z,157.50
2023-04-13T05:53:32.023Z,163.13
2023-04-13T05:54:32.023Z,180.00
2023-04-13T05:55:32.023Z,185.63
2023-04-13T05:56:32.018Z,180.00
2023-04-13T05:57:32.012Z,163.13
2023-04-13T05:58:32.008Z,151.88
2023-04-13T05:59:32.012Z,146.25
2023-04-13T06:00:32.011Z,140.63
2023-04-13T06:01:32.008Z,140.63
2023-04-13T06:02:32.234Z,146.25
2023-04-13T06:03:32.252Z,151.88
2023-04-13T06:04:32.208Z,157.50
2023-04-13T06:05:31.999Z,157.50
2023-04-13T06:06:31.998Z,157.50
2023-04-13T06:07:31.994Z,157.50
2023-04-13T06:08:32.011Z,151.88
2023-04-13T06:09:31.992Z,151.88
2023-04-13T06:10:31.999Z,151.88
2023-04-13T06:11:31.988Z,163.13
2023-04-13T06:12:31.988Z,174.38
2023-04-13T06:13:31.980Z,180.00
2023-04-13T06:14:31.979Z,185.63
2023-04-13T06:15:31.992Z,185.63
2023-04-13T06:16:32.046Z,191.25
2023-04-13T06:17:31.992Z,196.88
2023-04-13T06:18:31.977Z,202.50
2023-04-13T06:19:31.991Z,208.13
2023-04-13T06:20:31.971Z,213.75
2023-04-13T06:21:32.000Z,213.75
2023-04-13T06:22:31.975Z,219.38
2023-04-13T06:23:31.964Z,213.75
2023-04-13T06:24:31.986Z,213.75
2023-04-13T06:25:31.958Z,219.38
2023-04-13T06:26:31.960Z,225.00
2023-04-13T06:27:31.962Z,219.38
2023-04-13T06:28:31.962Z,208.13
2023-04-13T06:29:31.956Z,196.88
2023-04-13T06:30:31.983Z,185.63
2023-04-13T06:31:32.012Z,185.63
2023-04-13T06:32:31.971Z,185.63
2023-04-13T06:33:31.962Z,185.63
2023-04-13T06:34:31.974Z,185.63
2023-04-13T06:35:31.946Z,185.63
2023-04-13T06:36:31.955Z,185.63
2023-04-13T06:37:31.933Z,180.00
2023-04-13T06:38:31.948Z,174.38
2023-04-13T06:39:33.013Z,180.00
2023-04-13T06:40:31.954Z,180.00
2023-04-13T06:41:31.939Z,185.63
2023-04-13T06:42:31.923Z,191.25
2023-04-13T06:43:31.935Z,191.25
2023-04-13T06:44:31.940Z,191.25
2023-04-13T06:45:31.921Z,196.88
2023-04-13T06:46:31.951Z,202.50
2023-04-13T06:47:31.957Z,213.75
2023-04-13T06:48:31.912Z,219.38
2023-04-13T06:49:31.912Z,225.00
2023-04-13T06:50:31.917Z,230.63
2023-04-13T06:51:31.914Z,241.88
2023-04-13T06:52:31.906Z,253.13
2023-04-13T06:53:31.924Z,253.13
2023-04-13T06:54:31.903Z,253.13
2023-04-13T06:55:31.918Z,258.75
2023-04-13T06:56:31.923Z,270.00
2023-04-13T06:57:31.924Z,275.63
2023-04-13T06:58:31.901Z,286.88
2023-04-13T06:59:31.895Z,281.25
2023-04-13T07:00:31.960Z,286.88
2023-04-13T07:01:32.034Z,286.88
2023-04-13T07:02:32.047Z,281.25
2023-04-13T07:03:32.160Z,275.63
2023-04-13T07:04:33.925Z,275.63
2023-04-13T07:05:31.887Z,275.63
2023-04-13T07:06:31.890Z,270.00
2023-04-13T07:07:31.890Z,264.38
2023-04-13T07:08:31.884Z,258.75
2023-04-13T07:09:31.903Z,258.75
2023-04-13T07:10:31.882Z,253.13
2023-04-13T07:11:31.912Z,247.50
2023-04-13T07:12:32.102Z,247.50
2023-04-13T07:13:31.886Z,241.88
2023-04-13T07:14:31.883Z,241.88
2023-04-13T07:15:31.893Z,225.00
2023-04-13T07:16:31.983Z,213.75
2023-04-13T07:17:31.884Z,202.50
2023-04-13T07:18:31.876Z,202.50
2023-04-13T07:19:31.870Z,196.88
2023-04-13T07:20:31.870Z,196.88
2023-04-13T07:21:31.877Z,191.25
2023-04-13T07:22:31.862Z,185.63
2023-04-13T07:23:31.862Z,185.63
2023-04-13T07:24:31.851Z,185.63
2023-04-13T07:25:31.857Z,191.25
2023-04-13T07:26:31.860Z,202.50
2023-04-13T07:27:31.859Z,208.13
2023-04-13T07:28:31.870Z,213.75
2023-04-13T07:29:31.849Z,213.75
2023-04-13T07:30:31.875Z,213.75
2023-04-13T07:31:31.875Z,213.75
2023-04-13T07:32:31.908Z,225.00
2023-04-13T07:33:31.847Z,225.00
2023-04-13T07:34:31.861Z,225.00
2023-04-13T07:35:31.854Z,230.63
2023-04-13T07:36:31.845Z,236.25
2023-04-13T07:37:31.860Z,241.88
2023-04-13T07:38:31.833Z,247.50
2023-04-13T07:39:31.845Z,258.75
2023-04-13T07:40:31.828Z,275.63
2023-04-13T07:41:31.833Z,286.88
2023-04-13T07:42:31.843Z,303.75
2023-04-13T07:43:31.830Z,326.25
2023-04-13T07:44:31.841Z,337.50
2023-04-13T07:45:31.824Z,348.75
2023-04-13T07:46:31.869Z,343.13
2023-04-13T07:47:31.834Z,343.13
2023-04-13T07:48:31.822Z,337.50
2023-04-13T07:49:31.817Z,331.88
2023-04-13T07:50:31.816Z,326.25
2023-04-13T07:51:31.811Z,320.63
2023-04-13T07:52:31.806Z,320.63
2023-04-13T07:53:31.811Z,315.00
2023-04-13T07:54:31.814Z,309.38
2023-04-13T07:55:31.811Z,286.88
2023-04-13T07:56:31.824Z,270.00
2023-04-13T07:57:31.814Z,264.38
2023-04-13T07:58:31.803Z,275.63
2023-04-13T07:59:31.815Z,292.50
2023-04-13T08:00:31.831Z,309.38
2023-04-13T08:01:31.813Z,320.63
2023-04-13T08:02:31.942Z,320.63
2023-04-13T08:03:31.956Z,315.00
2023-04-13T08:04:32.048Z,309.38
2023-04-13T08:05:31.907Z,315.00
2023-04-13T08:06:31.783Z,320.63
2023-04-13T08:07:31.791Z,337.50
2023-04-13T08:08:31.786Z,360.00
2023-04-13T08:09:31.784Z,376.88
2023-04-13T08:10:31.789Z,382.50
2023-04-13T08:11:31.780Z,393.75
2023-04-13T08:12:31.783Z,399.38
2023-04-13T08:13:31.776Z,405.00
2023-04-13T08:14:31.782Z,399.38
2023-04-13T08:15:31.780Z,405.00
2023-04-13T08:16:31.899Z,410.63
2023-04-13T08:17:31.830Z,421.88
2023-04-13T08:18:31.774Z,433.13
2023-04-13T08:19:31.778Z,438.75
2023-04-13T08:20:31.789Z,472.50
2023-04-13T08:21:31.772Z,495.00
2023-04-13T08:22:31.771Z,534.38
2023-04-13T08:23:31.773Z,551.25
2023-04-13T08:24:31.931Z,646.88
2023-04-13T08:25:31.762Z,708.75
2023-04-13T08:26:31.776Z,731.25
2023-04-13T08:27:31.797Z,956.25
2023-04-13T08:28:32.593Z,871.88
2023-04-13T08:29:31.759Z,871.88
2023-04-13T08:30:31.772Z,843.75
2023-04-13T08:31:31.777Z,984.38
2023-04-13T08:32:31.847Z,950.63
2023-04-13T08:33:31.754Z,810.00
2023-04-13T08:34:31.758Z,753.75
2023-04-13T08:35:31.763Z,725.63
2023-04-13T08:36:31.752Z,703.13
2023-04-13T08:37:31.773Z,585.00
2023-04-13T08:38:31.757Z,590.63
2023-04-13T08:39:31.756Z,585.00
2023-04-13T08:40:31.760Z,562.50
2023-04-13T08:41:31.757Z,534.38
2023-04-13T08:42:31.769Z,528.75
2023-04-13T08:43:31.754Z,511.88
2023-04-13T08:44:31.751Z,495.00
2023-04-13T08:45:31.760Z,489.38
2023-04-13T08:46:31.755Z,478.13
2023-04-13T08:47:31.843Z,483.75
2023-04-13T08:48:39.245Z,500.63
2023-04-13T08:49:31.742Z,528.75
2023-04-13T08:50:31.745Z,551.25
2023-04-13T08:51:31.745Z,590.63
2023-04-13T08:52:31.736Z,579.38
2023-04-13T08:53:31.736Z,556.88
2023-04-13T08:54:31.745Z,545.63
2023-04-13T08:55:31.738Z,506.25
2023-04-13T08:56:42.675Z,495.00
2023-04-13T08:57:31.746Z,478.13
2023-04-13T08:58:31.730Z,450.00
2023-04-13T08:59:31.732Z,438.75
2023-04-13T09:00:31.732Z,433.13
2023-04-13T09:01:31.750Z,410.63
2023-04-13T09:02:31.863Z,405.00
2023-04-13T09:03:31.841Z,416.25
2023-04-13T09:04:32.130Z,483.75
2023-04-13T09:05:31.732Z,675.00
2023-04-13T09:06:31.727Z,736.88
2023-04-13T09:07:31.723Z,742.50
2023-04-13T09:08:31.727Z,804.38
2023-04-13T09:09:31.721Z,815.63
2023-04-13T09:10:31.753Z,916.88
2023-04-13T09:11:31.718Z,1113.75
2023-04-13T09:12:31.722Z,1440.00
2023-04-13T09:13:31.728Z,1552.50
2023-04-13T09:14:31.729Z,1316.25
2023-04-13T09:15:31.732Z,1541.25
2023-04-13T09:16:31.735Z,1996.88
2023-04-13T09:17:31.737Z,1771.88
2023-04-13T09:18:31.718Z,1760.63
2023-04-13T09:19:31.726Z,1614.38
2023-04-13T09:20:31.778Z,1389.38
2023-04-13T09:21:31.715Z,1434.38
2023-04-13T09:22:31.727Z,1389.38
2023-04-13T09:23:31.759Z,1468.13
2023-04-13T09:24:31.716Z,1513.13
2023-04-13T09:25:31.720Z,1631.25
2023-04-13T09:26:31.720Z,1507.50
2023-04-13T09:27:31.717Z,1321.88
2023-04-13T09:28:31.722Z,1136.25
2023-04-13T09:29:31.716Z,990.00
2023-04-13T09:30:31.720Z,922.50
2023-04-13T09:31:31.805Z,815.63
2023-04-13T09:32:31.761Z,675.00
2023-04-13T09:33:31.723Z,568.13
2023-04-13T09:34:31.717Z,528.75
2023-04-13T09:35:31.725Z,534.38
2023-04-13T09:36:31.758Z,540.00
2023-04-13T09:37:31.716Z,528.75
2023-04-13T09:38:31.727Z,506.25
2023-04-13T09:39:31.724Z,568.13
2023-04-13T09:40:31.772Z,646.88
2023-04-13T09:41:31.719Z,646.88
2023-04-13T09:42:31.721Z,613.13
2023-04-13T09:43:31.718Z,556.88
2023-04-13T09:44:31.720Z,545.63
2023-04-13T09:45:31.714Z,680.63
2023-04-13T09:46:31.784Z,877.50
2023-04-13T09:47:31.761Z,990.00
2023-04-13T09:48:31.719Z,1130.63
2023-04-13T09:49:31.755Z,1096.88
2023-04-13T09:50:31.719Z,1175.63
2023-04-13T09:51:31.720Z,1299.38
2023-04-13T09:52:31.755Z,1552.50
2023-04-13T09:53:31.714Z,1878.75
2023-04-13T09:54:31.716Z,1884.38
2023-04-13T09:55:31.712Z,2356.88
2023-04-13T09:56:31.722Z,2508.75
2023-04-13T09:57:31.741Z,2823.75
2023-04-13T09:58:31.723Z,2773.13
2023-04-13T09:59:31.718Z,2998.13
2023-04-13T10:00:31.723Z,2818.13
2023-04-13T10:01:31.763Z,2986.88
2023-04-13T10:02:31.830Z,2778.75
2023-04-13T10:03:31.791Z,2480.63
2023-04-13T10:04:31.741Z,1254.38
2023-04-13T10:05:31.758Z,905.63
2023-04-13T10:06:31.720Z,928.13
2023-04-13T10:07:31.722Z,1074.38
2023-04-13T10:08:38.188Z,950.63
2023-04-13T10:09:31.723Z,1091.25
2023-04-13T10:10:31.718Z,945.00
2023-04-13T10:11:31.720Z,753.75
2023-04-13T10:12:31.721Z,742.50
2023-04-13T10:13:31.724Z,1136.25
2023-04-13T10:14:31.718Z,838.13
2023-04-13T10:15:31.730Z,916.88
2023-04-13T10:16:31.768Z,956.25
2023-04-13T10:17:31.820Z,894.38
2023-04-13T10:18:31.812Z,860.63
2023-04-13T10:19:31.718Z,866.25
2023-04-13T10:20:32.207Z,815.63
2023-04-13T10:21:31.722Z,916.88
2023-04-13T10:22:31.717Z,973.13
2023-04-13T10:23:31.718Z,1029.38
2023-04-13T10:24:31.745Z,1102.50
2023-04-13T10:25:33.524Z,1170.00
2023-04-13T10:26:31.719Z,1209.38
2023-04-13T10:27:31.723Z,1299.38
2023-04-13T10:28:31.720Z,1170.00
2023-04-13T10:29:31.717Z,1080.00
2023-04-13T10:30:31.725Z,894.38
2023-04-13T10:31:31.753Z,860.63
2023-04-13T10:32:31.743Z,804.38
2023-04-13T10:33:31.727Z,742.50
2023-04-13T10:34:31.724Z,725.63
2023-04-13T10:35:31.723Z,624.38
2023-04-13T10:36:31.725Z,618.75
2023-04-13T10:37:31.729Z,607.50
2023-04-13T10:38:31.723Z,675.00
2023-04-13T10:39:31.806Z,708.75
2023-04-13T10:40:31.745Z,691.88
2023-04-13T10:41:31.832Z,658.13
2023-04-13T10:42:36.676Z,646.88
2023-04-13T10:43:31.753Z,618.75
2023-04-13T10:44:31.741Z,770.63
2023-04-13T10:45:31.728Z,990.00
2023-04-13T10:46:31.762Z,1108.13
2023-04-13T10:47:31.769Z,1006.88
2023-04-13T10:48:31.722Z,995.63
2023-04-13T10:49:31.735Z,855.00
2023-04-13T10:50:31.731Z,686.25
2023-04-13T10:51:31.723Z,793.13
2023-04-13T10:52:31.729Z,855.00
2023-04-13T10:53:31.720Z,1108.13
2023-04-13T10:54:31.729Z,939.38
2023-04-13T10:55:31.737Z,697.50
2023-04-13T10:56:31.798Z,540.00
2023-04-13T10:57:31.725Z,495.00
2023-04-13T10:58:33.042Z,461.25
2023-04-13T10:59:32.685Z,489.38
2023-04-13T11:00:42.272Z,815.63
2023-04-13T11:01:31.728Z,939.38
2023-04-13T11:02:32.875Z,911.25
2023-04-13T11:03:32.021Z,860.63
2023-04-13T11:04:31.875Z,1113.75
2023-04-13T11:05:31.737Z,838.13
2023-04-13T11:06:31.733Z,686.25
2023-04-13T11:07:31.746Z,630.00
2023-04-13T11:08:31.763Z,742.50
2023-04-13T11:09:31.742Z,562.50
2023-04-13T11:10:31.737Z,511.88
2023-04-13T11:11:31.729Z,720.00
2023-04-13T11:12:31.765Z,691.88
2023-04-13T11:13:31.740Z,663.75
2023-04-13T11:14:31.743Z,579.38
2023-04-13T11:15:31.737Z,545.63
2023-04-13T11:16:31.820Z,590.63
2023-04-13T11:17:31.780Z,641.25
2023-04-13T11:18:31.740Z,551.25
2023-04-13T11:19:31.743Z,450.00
2023-04-13T11:20:31.735Z,433.13
2023-04-13T11:21:31.759Z,427.50
2023-04-13T11:22:31.739Z,416.25
2023-04-13T11:23:31.739Z,444.38
2023-04-13T11:24:31.743Z,455.63
2023-04-13T11:25:31.740Z,511.88
2023-04-13T11:26:31.739Z,540.00
2023-04-13T11:27:31.735Z,545.63
2023-04-13T11:28:31.770Z,540.00
2023-04-13T11:29:31.749Z,596.25
2023-04-13T11:30:31.748Z,781.88
2023-04-13T11:31:31.745Z,888.75
2023-04-13T11:32:31.794Z,843.75
2023-04-13T11:33:31.742Z,843.75
2023-04-13T11:34:31.746Z,826.88
2023-04-13T11:35:31.741Z,883.13
2023-04-13T11:36:31.734Z,753.75
2023-04-13T11:37:31.740Z,686.25
2023-04-13T11:38:31.743Z,669.38
2023-04-13T11:39:31.735Z,742.50
2023-04-13T11:40:31.744Z,686.25
2023-04-13T11:41:31.735Z,551.25
2023-04-13T11:42:31.737Z,506.25
2023-04-13T11:43:31.738Z,663.75
2023-04-13T11:44:31.763Z,855.00
2023-04-13T11:45:31.737Z,894.38
2023-04-13T11:46:31.809Z,888.75
2023-04-13T11:47:31.766Z,928.13
2023-04-13T11:48:31.740Z,1046.25
2023-04-13T11:49:31.736Z,1057.50
2023-04-13T11:50:31.742Z,1040.63
2023-04-13T11:51:31.735Z,1068.75
2023-04-13T11:52:31.733Z,961.88
2023-04-13T11:53:31.729Z,770.63
2023-04-13T11:54:31.735Z,613.13
2023-04-13T11:55:34.759Z,556.88
2023-04-13T11:56:31.739Z,545.63
2023-04-13T11:57:31.731Z,540.00
2023-04-13T11:58:31.733Z,720.00
2023-04-13T11:59:31.743Z,866.25
2023-04-13T12:00:31.761Z,984.38
2023-04-13T12:01:34.401Z,753.75
2023-04-13T12:02:33.912Z,714.38
2023-04-13T12:03:46.960Z,590.63
2023-04-13T12:04:31.867Z,483.75
2023-04-13T12:05:32.684Z,601.88
2023-04-13T12:06:31.919Z,691.88
2023-04-13T12:07:32.434Z,810.00
2023-04-13T12:08:32.058Z,765.00
2023-04-13T12:09:53.479Z,703.13
2023-04-13T12:10:40.198Z,793.13
2023-04-13T12:12:51.483Z,708.75
2023-04-13T12:13:36.165Z,720.00
2023-04-13T12:14:54.129Z,753.75
2023-04-13T12:15:43.477Z,1164.38
2023-04-13T12:17:02.008Z,939.38
2023-04-13T12:19:33.013Z,900.00
2023-04-13T12:20:31.774Z,900.00
2023-04-13T12:21:31.825Z,843.75
2023-04-13T12:22:36.714Z,1136.25
2023-04-13T12:23:31.767Z,1029.38
2023-04-13T12:24:32.733Z,1068.75
2023-04-13T12:25:35.889Z,1153.13
2023-04-13T12:27:16.353Z,1552.50
2023-04-13T12:27:31.746Z,1636.88
2023-04-13T12:28:34.297Z,1423.13
2023-04-13T12:29:31.754Z,793.13
2023-04-13T12:30:31.744Z,1321.88
2023-04-13T12:31:31.810Z,742.50
2023-04-13T12:32:31.791Z,607.50
2023-04-13T12:33:31.741Z,472.50
2023-04-13T12:34:31.743Z,635.63
2023-04-13T12:35:31.758Z,585.00
2023-04-13T12:36:31.830Z,770.63
2023-04-13T12:37:31.745Z,826.88
2023-04-13T12:38:33.063Z,703.13
2023-04-13T12:39:31.765Z,641.25
2023-04-13T12:40:31.750Z,579.38
2023-04-13T12:41:31.754Z,601.88
2023-04-13T12:42:31.749Z,708.75
2023-04-13T12:43:31.762Z,691.88
2023-04-13T12:44:33.741Z,652.50
2023-04-13T12:45:31.751Z,646.88
2023-04-13T12:46:31.753Z,691.88
2023-04-13T12:47:31.757Z,646.88
2023-04-13T12:48:31.778Z,714.38